Monday, November 20, 2017, 4:24 AM EST

KGED, Georgetown Sussex Co Airport

Location: Georgetown, DE, United States Lat: 38.683
Local Time: 4:24 AM EST ( 9:24 GMT) Lon: -75.367
Time Zone: US/Eastern Elev: 52 ft

Show me the last for .
Show Decoded

2017-11-20 03:54 METAR KGED 200854Z AUTO 31008KT 280V340 10SM CLR 06/M06 A3004 RMK AO2 SLP171
                 T00561056 51025 =
2017-11-20 02:54 METAR KGED 200754Z AUTO 28009G19KT 10SM OVC060 07/M04 A3002 RMK AO2 SLP167
                 T00671039 =
2017-11-20 01:54 METAR KGED 200654Z AUTO 28009G15KT 10SM OVC065 07/M02 A2999 RMK AO2 SLP156
                 T00671022 =
2017-11-20 00:54 METAR KGED 200554Z AUTO 28005KT 10SM OVC070 06/M02 A2996 RMK AO2 SLP146
                 T00561022 10083 20050 51016 =
2017-11-19 23:54 METAR KGED 200454Z AUTO 27003KT 10SM BKN070 05/M03 A2995 RMK AO2 SLP141
                 T00501028 401940050 =
2017-11-19 22:54 METAR KGED 200354Z AUTO 25004KT 10SM CLR 05/M03 A2993 RMK AO2 SLP137 T00501033 =
2017-11-19 21:54 METAR KGED 200254Z AUTO 27005KT 10SM CLR 06/M03 A2992 RMK AO2 SLP130 T00611033
                 51025 =
2017-11-19 20:54 METAR KGED 200154Z AUTO 27005KT 10SM OVC070 07/M03 A2989 RMK AO2 SLP123
                 T00671028 =
2017-11-19 19:54 METAR KGED 200054Z AUTO 29006KT 10SM FEW065 08/M03 A2987 RMK AO2 SLP116
                 T00781028 =
2017-11-19 18:54 METAR KGED 192354Z AUTO 29008KT 10SM OVC060 08/M03 A2984 RMK AO2 SLP105 60000
                 T00831033 10122 20078 51038 =
2017-11-19 17:54 METAR KGED 192254Z AUTO 30015G23KT 10SM CLR 08/M04 A2981 RMK AO2 SLP092
                 T00831039 =
2017-11-19 16:54 METAR KGED 192154Z AUTO 31009G19KT 10SM CLR 09/M03 A2977 RMK AO2 PK WND
                 29030/2117 RAB21E28 SLP080 P0000 T00891028 =
2017-11-19 15:54 METAR KGED 192054Z AUTO 29018G28KT 10SM CLR 10/M02 A2973 RMK AO2 PK WND
                 30028/2048 SLP066 60000 T01001017 53027 =
2017-11-19 14:54 METAR KGED 191954Z AUTO 30013G22KT 10SM CLR 12/M02 A2968 RMK AO2 PK WND
                 31030/1933 RAB30E45 SLP051 P0000 T01171017 =
2017-11-19 13:54 METAR KGED 191854Z AUTO 29016G27KT 10SM CLR 12/M01 A2966 RMK AO2 PK WND
                 29034/1822 RAB23E48 SLP042 P0000 T01221006 =
2017-11-19 12:54 METAR KGED 191754Z AUTO 30014G27KT 10SM FEW047 12/00 A2965 RMK AO2 PK WND
                 28037/1706 RAE26 SLP039 P0000 60000 T01220000 10139 20111 51012 =
2017-11-19 11:54 METAR KGED 191654Z AUTO 30014G32KT 10SM -RA CLR 12/00 A2964 RMK AO2 PK WND
                 30032/1645 RAB09 SLP035 P0000 T01220000 =
2017-11-19 10:54 METAR KGED 191554Z AUTO 30014G27KT 10SM CLR 12/01 A2964 RMK AO2 PK WND
                 29033/1519 RAB01E37 SLP035 P0000 T01220006 =
2017-11-19 09:54 METAR KGED 191454Z AUTO 29012G23KT 10SM CLR 12/01 A2962 RMK AO2 PK WND
                 30036/1409 RAE48 SLP028 P0000 60000 T01170006 51059 =
2017-11-19 08:54 METAR KGED 191354Z AUTO 30016G34KT 10SM -RA CLR 11/01 A2958 RMK AO2 PK WND
                 31035/1301 RAB1255 SLP014 P0000 T01110011 =
2017-11-19 07:54 METAR KGED 191254Z AUTO 30020G32KT 10SM BKN055 BKN070 12/03 A2953 RMK AO2 PK WND
                 27033/1156 WSHFT 1141 RAE20 SLP998 P0000 T01170033 =
2017-11-19 07:01 METAR KGED 191201Z AUTO 30016G33KT 10SM -RA FEW020 BKN042 OVC050 14/06 A2945 RMK
                 AO2 PK WND 27033/1156 WSHFT 1141 P0000 T01390056 =
2017-11-19 06:54 METAR KGED 191154Z AUTO 29015G32KT 10SM -RA FEW020 BKN042 OVC070 14/07 A2944 RMK
                 AO2 PK WND 22032/1106 WSHFT 1137 RAE18B48 SLP968 P0000 60004 70004 T01390067
                 10194 20139 53020 =
2017-11-19 05:54 METAR KGED 191054Z AUTO 22019G27KT 10SM -RA OVC085 16/13 A2939 RMK AO2 PK WND
                 21029/0957 SLP950 P0003 T01610133 =
2017-11-19 04:54 METAR KGED 190954Z AUTO 21018G25KT 10SM -RA FEW049 OVC090 17/13 A2937 RMK AO2 PK
                 WND 20034/0902 SLP944 P0001 T01670128 =

Support USWX by starting your Amazon purchase here.